sensor_id;sensor_type;location;lat;lon;timestamp;pressure;altitude;pressure_sealevel;temperature;humidity
51417;BME280;50158;51.528;6.982;2022-09-03T00:00:14;68030;;;15.22;73.23
51417;BME280;50158;51.528;6.982;2022-09-03T00:00:59;68030;;;15.18;73.49
51417;BME280;50158;51.528;6.982;2022-09-03T00:02:02;68020;;;15.16;73.62
51417;BME280;50158;51.528;6.982;2022-09-03T00:02:58;68020;;;15.13;73.86
51417;BME280;50158;51.528;6.982;2022-09-03T00:03:58;68020;;;15.09;74.05
51417;BME280;50158;51.528;6.982;2022-09-03T00:05:00;68020;;;15.07;74.05
51417;BME280;50158;51.528;6.982;2022-09-03T00:06:13;68010;;;15.04;74.27
51417;BME280;50158;51.528;6.982;2022-09-03T00:06:59;68010;;;14.98;74.4
51417;BME280;50158;51.528;6.982;2022-09-03T00:08:01;68000;;;14.97;74.41
51417;BME280;50158;51.528;6.982;2022-09-03T00:09:59;68000;;;14.96;74.51
51417;BME280;50158;51.528;6.982;2022-09-03T00:10:04;68000;;;14.94;74.6
51417;BME280;50158;51.528;6.982;2022-09-03T00:11:47;68000;;;14.97;74.42
51417;BME280;50158;51.528;6.982;2022-09-03T00:12:01;68000;;;14.94;74.5
51417;BME280;50158;51.528;6.982;2022-09-03T00:14:02;68000;;;14.97;74.67
51417;BME280;50158;51.528;6.982;2022-09-03T00:15:05;68010;;;15.03;74.89
51417;BME280;50158;51.528;6.982;2022-09-03T00:15:57;68010;;;14.99;74.82
51417;BME280;50158;51.528;6.982;2022-09-03T00:18:04;68010;;;15.04;74.17
51417;BME280;50158;51.528;6.982;2022-09-03T00:18:04;68020;;;15.07;74.53
51417;BME280;50158;51.528;6.982;2022-09-03T00:18:59;68010;;;15.03;74.26
51417;BME280;50158;51.528;6.982;2022-09-03T00:19:59;68020;;;15.06;74.26
51417;BME280;50158;51.528;6.982;2022-09-03T00:21:01;68010;;;15.02;74.4
51417;BME280;50158;51.528;6.982;2022-09-03T00:21:57;68010;;;14.99;74.52
51417;BME280;50158;51.528;6.982;2022-09-03T00:23:57;68020;;;15.06;74.09
51417;BME280;50158;51.528;6.982;2022-09-03T00:24:57;68020;;;15.07;74.3
51417;BME280;50158;51.528;6.982;2022-09-03T00:26:00;68010;;;15.04;74.32
51417;BME280;50158;51.528;6.982;2022-09-03T00:26:59;68010;;;14.98;74.52
51417;BME280;50158;51.528;6.982;2022-09-03T00:27:58;68010;;;15;74.58
51417;BME280;50158;51.528;6.982;2022-09-03T00:29:00;68010;;;15.02;74.6
51417;BME280;50158;51.528;6.982;2022-09-03T00:30:00;68020;;;15.1;74.15
51417;BME280;50158;51.528;6.982;2022-09-03T00:31:04;68020;;;15.1;73.88
51417;BME280;50158;51.528;6.982;2022-09-03T00:32:00;68010;;;15.03;74.03
51417;BME280;50158;51.528;6.982;2022-09-03T00:34:00;68010;;;15.01;74.14
51417;BME280;50158;51.528;6.982;2022-09-03T00:35:00;68010;;;15.04;74.14
51417;BME280;50158;51.528;6.982;2022-09-03T00:36:03;68010;;;15.05;74.04
51417;BME280;50158;51.528;6.982;2022-09-03T00:36:57;68010;;;15.03;74.34
51417;BME280;50158;51.528;6.982;2022-09-03T00:37:58;68010;;;15;74.78
51417;BME280;50158;51.528;6.982;2022-09-03T00:38:58;68000;;;14.93;74.91
51417;BME280;50158;51.528;6.982;2022-09-03T00:39:57;68000;;;14.92;74.81
51417;BME280;50158;51.528;6.982;2022-09-03T00:41:01;68000;;;14.89;74.75
51417;BME280;50158;51.528;6.982;2022-09-03T00:42:34;68000;;;14.89;74.96
51417;BME280;50158;51.528;6.982;2022-09-03T00:43:00;68000;;;14.89;74.89
51417;BME280;50158;51.528;6.982;2022-09-03T00:44:18;67990;;;14.82;75.39
51417;BME280;50158;51.528;6.982;2022-09-03T00:45:08;67990;;;14.8;75.53
51417;BME280;50158;51.528;6.982;2022-09-03T00:46:14;67980;;;14.76;75.59
51417;BME280;50158;51.528;6.982;2022-09-03T00:48:15;67980;;;14.77;75.39
51417;BME280;50158;51.528;6.982;2022-09-03T00:49:04;67980;;;14.74;75.53
51417;BME280;50158;51.528;6.982;2022-09-03T00:50:02;67990;;;14.8;75.43
51417;BME280;50158;51.528;6.982;2022-09-03T00:52:02;67980;;;14.73;75.86
51417;BME280;50158;51.528;6.982;2022-09-03T00:54:01;67980;;;14.7;76.49
51417;BME280;50158;51.528;6.982;2022-09-03T00:54:05;67980;;;14.7;75.9
51417;BME280;50158;51.528;6.982;2022-09-03T00:55:01;67980;;;14.71;76.33
51417;BME280;50158;51.528;6.982;2022-09-03T00:56:02;67970;;;14.68;76.71
51417;BME280;50158;51.528;6.982;2022-09-03T00:57:10;67970;;;14.65;76.58
51417;BME280;50158;51.528;6.982;2022-09-03T00:58:03;67970;;;14.63;76.76
51417;BME280;50158;51.528;6.982;2022-09-03T00:59:01;67970;;;14.62;76.7
51417;BME280;50158;51.528;6.982;2022-09-03T01:00:29;67960;;;14.57;76.87
51417;BME280;50158;51.528;6.982;2022-09-03T01:00:58;67960;;;14.58;76.73
51417;BME280;50158;51.528;6.982;2022-09-03T01:02:27;67960;;;14.57;76.55
51417;BME280;50158;51.528;6.982;2022-09-03T01:03:14;67960;;;14.55;76.8
51417;BME280;50158;51.528;6.982;2022-09-03T01:05:00;67960;;;14.55;76.73
51417;BME280;50158;51.528;6.982;2022-09-03T01:06:09;67960;;;14.55;76.66
51417;BME280;50158;51.528;6.982;2022-09-03T01:07:08;67960;;;14.52;76.74
51417;BME280;50158;51.528;6.982;2022-09-03T01:08:12;67960;;;14.54;76.91
51417;BME280;50158;51.528;6.982;2022-09-03T01:09:01;67960;;;14.58;76.65
51417;BME280;50158;51.528;6.982;2022-09-03T01:10:07;67960;;;14.54;76.76
51417;BME280;50158;51.528;6.982;2022-09-03T01:11:02;67960;;;14.58;76.93
51417;BME280;50158;51.528;6.982;2022-09-03T01:12:08;67960;;;14.53;77.03
51417;BME280;50158;51.528;6.982;2022-09-03T01:13:01;67960;;;14.52;76.94
51417;BME280;50158;51.528;6.982;2022-09-03T01:14:02;67960;;;14.53;76.97
51417;BME280;50158;51.528;6.982;2022-09-03T01:15:07;67950;;;14.5;77.14
51417;BME280;50158;51.528;6.982;2022-09-03T01:17:02;67950;;;14.49;77.31
51417;BME280;50158;51.528;6.982;2022-09-03T01:18:30;67950;;;14.47;77.44
51417;BME280;50158;51.528;6.982;2022-09-03T01:20:32;67940;;;14.37;77.81
51417;BME280;50158;51.528;6.982;2022-09-03T01:21:01;67940;;;14.36;78.04
51417;BME280;50158;51.528;6.982;2022-09-03T01:22:18;67940;;;14.34;78.34
51417;BME280;50158;51.528;6.982;2022-09-03T01:23:34;67930;;;14.3;78.38
51417;BME280;50158;51.528;6.982;2022-09-03T01:25:11;67930;;;14.24;78.66
51417;BME280;50158;51.528;6.982;2022-09-03T01:26:33;67930;;;14.24;78.83
51417;BME280;50158;51.528;6.982;2022-09-03T01:27:01;67930;;;14.25;78.9
51417;BME280;50158;51.528;6.982;2022-09-03T01:29:16;67930;;;14.23;78.86
51417;BME280;50158;51.528;6.982;2022-09-03T01:30:02;67930;;;14.24;78.91
51417;BME280;50158;51.528;6.982;2022-09-03T01:31:03;67920;;;14.23;78.9
51417;BME280;50158;51.528;6.982;2022-09-03T01:32:00;67920;;;14.19;79.25
51417;BME280;50158;51.528;6.982;2022-09-03T01:33:02;67920;;;14.15;655.35
51417;BME280;50158;51.528;6.982;2022-09-03T01:34:01;67910;;;14.12;79.67
51417;BME280;50158;51.528;6.982;2022-09-03T01:35:02;67910;;;14.1;79.64
51417;BME280;50158;51.528;6.982;2022-09-03T01:36:01;67910;;;14.11;79.57
51417;BME280;50158;51.528;6.982;2022-09-03T01:37:07;67910;;;14.09;79.79
51417;BME280;50158;51.528;6.982;2022-09-03T01:38:08;67910;;;14.08;79.92
51417;BME280;50158;51.528;6.982;2022-09-03T01:38:59;67910;;;14.09;79.96
51417;BME280;50158;51.528;6.982;2022-09-03T01:40:41;67910;;;14.05;80
51417;BME280;50158;51.528;6.982;2022-09-03T01:41:17;67900;;;14.05;80.19
51417;BME280;50158;51.528;6.982;2022-09-03T01:42:00;67910;;;14.09;80.27
51417;BME280;50158;51.528;6.982;2022-09-03T01:43:04;67900;;;14.03;80.52
51417;BME280;50158;51.528;6.982;2022-09-03T01:44:02;67900;;;14;80.57
51417;BME280;50158;51.528;6.982;2022-09-03T01:46:00;67890;;;13.95;80.76
51417;BME280;50158;51.528;6.982;2022-09-03T01:47:03;67890;;;13.92;81.08
51417;BME280;50158;51.528;6.982;2022-09-03T01:48:31;67890;;;13.9;81.1
51417;BME280;50158;51.528;6.982;2022-09-03T01:49:31;67900;;;13.96;80.97
51417;BME280;50158;51.528;6.982;2022-09-03T01:50:02;67900;;;13.97;80.76
51417;BME280;50158;51.528;6.982;2022-09-03T01:51:00;67900;;;13.95;80.88
51417;BME280;50158;51.528;6.982;2022-09-03T01:53:04;67890;;;13.91;80.97
51417;BME280;50158;51.528;6.982;2022-09-03T01:54:05;67890;;;13.88;81.28
51417;BME280;50158;51.528;6.982;2022-09-03T01:55:07;67880;;;13.84;81.31
51417;BME280;50158;51.528;6.982;2022-09-03T01:56:09;67880;;;13.77;81.61
51417;BME280;50158;51.528;6.982;2022-09-03T01:57:21;67870;;;13.73;81.78
51417;BME280;50158;51.528;6.982;2022-09-03T01:57:57;67870;;;13.74;82.16
51417;BME280;50158;51.528;6.982;2022-09-03T01:59:58;67880;;;13.83;81.73
51417;BME280;50158;51.528;6.982;2022-09-03T02:01:00;67880;;;13.79;81.87
51417;BME280;50158;51.528;6.982;2022-09-03T02:02:02;67870;;;13.73;82.22
51417;BME280;50158;51.528;6.982;2022-09-03T02:02:59;67870;;;13.68;82.63
51417;BME280;50158;51.528;6.982;2022-09-03T02:03:58;67860;;;13.67;82.7
51417;BME280;50158;51.528;6.982;2022-09-03T02:04:59;67860;;;13.61;83.1
51417;BME280;50158;51.528;6.982;2022-09-03T02:05:57;67850;;;13.58;83.31
51417;BME280;50158;51.528;6.982;2022-09-03T02:06:58;67860;;;13.66;83.05
51417;BME280;50158;51.528;6.982;2022-09-03T02:07:59;67860;;;13.68;82.76
51417;BME280;50158;51.528;6.982;2022-09-03T02:08:58;67860;;;13.62;83.05
51417;BME280;50158;51.528;6.982;2022-09-03T02:09:57;67850;;;13.57;83.43
51417;BME280;50158;51.528;6.982;2022-09-03T02:10:58;67850;;;13.54;83.51
51417;BME280;50158;51.528;6.982;2022-09-03T02:11:59;67840;;;13.48;83.78
51417;BME280;50158;51.528;6.982;2022-09-03T02:13:00;67840;;;13.45;83.88
51417;BME280;50158;51.528;6.982;2022-09-03T02:13:57;67840;;;13.45;83.83
51417;BME280;50158;51.528;6.982;2022-09-03T02:14:59;67840;;;13.44;83.87
51417;BME280;50158;51.528;6.982;2022-09-03T02:15:59;67840;;;13.47;83.93
51417;BME280;50158;51.528;6.982;2022-09-03T02:16:58;67840;;;13.47;83.8
51417;BME280;50158;51.528;6.982;2022-09-03T02:17:59;67840;;;13.45;84.06
51417;BME280;50158;51.528;6.982;2022-09-03T02:18:58;67840;;;13.41;84.05
51417;BME280;50158;51.528;6.982;2022-09-03T02:19:58;67830;;;13.37;84.22
51417;BME280;50158;51.528;6.982;2022-09-03T02:20:58;67830;;;13.34;84.42
51417;BME280;50158;51.528;6.982;2022-09-03T02:21:58;67830;;;13.32;84.58
51417;BME280;50158;51.528;6.982;2022-09-03T02:22:59;67820;;;13.3;84.41
51417;BME280;50158;51.528;6.982;2022-09-03T02:23:58;67820;;;13.27;84.72
51417;BME280;50158;51.528;6.982;2022-09-03T02:24:58;67820;;;13.25;84.84
51417;BME280;50158;51.528;6.982;2022-09-03T02:25:59;67820;;;13.22;85.08
51417;BME280;50158;51.528;6.982;2022-09-03T02:26:58;67820;;;13.26;85.35
51417;BME280;50158;51.528;6.982;2022-09-03T02:27:57;67820;;;13.26;85.28
51417;BME280;50158;51.528;6.982;2022-09-03T02:28:57;67810;;;13.22;85.51
51417;BME280;50158;51.528;6.982;2022-09-03T02:29:58;67820;;;13.24;85.54
51417;BME280;50158;51.528;6.982;2022-09-03T02:30:57;67820;;;13.23;85.52
51417;BME280;50158;51.528;6.982;2022-09-03T02:31:57;67810;;;13.16;85.83
51417;BME280;50158;51.528;6.982;2022-09-03T02:32:58;67800;;;13.11;86.03
51417;BME280;50158;51.528;6.982;2022-09-03T02:33:58;67800;;;13.11;86.4
51417;BME280;50158;51.528;6.982;2022-09-03T02:34:57;67800;;;13.09;86.46
51417;BME280;50158;51.528;6.982;2022-09-03T02:35:57;67800;;;13.06;86.76
51417;BME280;50158;51.528;6.982;2022-09-03T02:36:58;67800;;;13.06;86.8
51417;BME280;50158;51.528;6.982;2022-09-03T02:38:07;67800;;;13.04;86.78
51417;BME280;50158;51.528;6.982;2022-09-03T02:38:57;67800;;;13.05;86.81
51417;BME280;50158;51.528;6.982;2022-09-03T02:39:58;67800;;;13.05;86.83
51417;BME280;50158;51.528;6.982;2022-09-03T02:40:58;67790;;;13.04;86.69
51417;BME280;50158;51.528;6.982;2022-09-03T02:41:57;67790;;;13.01;86.72
51417;BME280;50158;51.528;6.982;2022-09-03T02:42:57;67790;;;13.01;86.65
51417;BME280;50158;51.528;6.982;2022-09-03T02:44:07;67790;;;13.05;86.84
51417;BME280;50158;51.528;6.982;2022-09-03T02:45:00;67790;;;13.04;86.72
51417;BME280;50158;51.528;6.982;2022-09-03T02:45:59;67790;;;13.03;86.81
51417;BME280;50158;51.528;6.982;2022-09-03T02:47:02;67790;;;13.03;87.17
51417;BME280;50158;51.528;6.982;2022-09-03T02:47:58;67790;;;13;87.16
51417;BME280;50158;51.528;6.982;2022-09-03T02:48:57;67790;;;13;87.06
51417;BME280;50158;51.528;6.982;2022-09-03T02:49:57;67790;;;13.01;87.01
51417;BME280;50158;51.528;6.982;2022-09-03T02:50:58;67790;;;13.01;87.07
51417;BME280;50158;51.528;6.982;2022-09-03T02:51:58;67790;;;13.01;87.18
51417;BME280;50158;51.528;6.982;2022-09-03T02:52:57;67790;;;12.99;87.42
51417;BME280;50158;51.528;6.982;2022-09-03T02:53:58;67790;;;12.99;87.39
51417;BME280;50158;51.528;6.982;2022-09-03T02:54:57;67790;;;12.95;87.41
51417;BME280;50158;51.528;6.982;2022-09-03T02:55:58;67780;;;12.92;87.55
51417;BME280;50158;51.528;6.982;2022-09-03T02:56:57;67780;;;12.9;87.87
51417;BME280;50158;51.528;6.982;2022-09-03T02:57:57;67780;;;12.91;87.61
51417;BME280;50158;51.528;6.982;2022-09-03T02:58:57;67790;;;12.95;87.2
51417;BME280;50158;51.528;6.982;2022-09-03T02:59:57;67790;;;12.97;87.06
51417;BME280;50158;51.528;6.982;2022-09-03T03:00:57;67790;;;12.98;87.13
51417;BME280;50158;51.528;6.982;2022-09-03T03:01:58;67790;;;12.99;86.93
51417;BME280;50158;51.528;6.982;2022-09-03T03:03:58;67790;;;12.96;87.41
51417;BME280;50158;51.528;6.982;2022-09-03T03:04:57;67790;;;12.95;87.45
51417;BME280;50158;51.528;6.982;2022-09-03T03:05:57;67780;;;12.91;87.74
51417;BME280;50158;51.528;6.982;2022-09-03T03:06:57;67780;;;12.91;88
51417;BME280;50158;51.528;6.982;2022-09-03T03:07:58;67780;;;12.88;88.26
51417;BME280;50158;51.528;6.982;2022-09-03T03:08:57;67780;;;12.9;87.89
51417;BME280;50158;51.528;6.982;2022-09-03T03:09:57;67780;;;12.87;87.91
51417;BME280;50158;51.528;6.982;2022-09-03T03:10:57;67780;;;12.9;87.57
51417;BME280;50158;51.528;6.982;2022-09-03T03:11:57;67780;;;12.91;87.5
51417;BME280;50158;51.528;6.982;2022-09-03T03:12:57;67790;;;12.97;87.35
51417;BME280;50158;51.528;6.982;2022-09-03T03:13:57;67790;;;13.01;87.12
51417;BME280;50158;51.528;6.982;2022-09-03T03:14:58;67790;;;12.97;87.57
51417;BME280;50158;51.528;6.982;2022-09-03T03:16:01;67790;;;12.95;87.45
51417;BME280;50158;51.528;6.982;2022-09-03T03:16:58;67790;;;12.94;87.47
51417;BME280;50158;51.528;6.982;2022-09-03T03:17:57;67790;;;12.97;87.52
51417;BME280;50158;51.528;6.982;2022-09-03T03:18:57;67790;;;12.96;87.47
51417;BME280;50158;51.528;6.982;2022-09-03T03:19:57;67780;;;12.94;87.64
51417;BME280;50158;51.528;6.982;2022-09-03T03:21:02;67780;;;12.9;87.81
51417;BME280;50158;51.528;6.982;2022-09-03T03:21:57;67780;;;12.9;88.03
51417;BME280;50158;51.528;6.982;2022-09-03T03:22:57;67780;;;12.89;87.92
51417;BME280;50158;51.528;6.982;2022-09-03T03:23:57;67770;;;12.84;88.22
51417;BME280;50158;51.528;6.982;2022-09-03T03:24:59;67770;;;12.82;88.5
51417;BME280;50158;51.528;6.982;2022-09-03T03:26:05;67770;;;12.81;88.68
51417;BME280;50158;51.528;6.982;2022-09-03T03:27:57;67760;;;12.76;88.97
51417;BME280;50158;51.528;6.982;2022-09-03T03:28:58;67760;;;12.74;89.04
51417;BME280;50158;51.528;6.982;2022-09-03T03:29:57;67760;;;12.75;88.98
51417;BME280;50158;51.528;6.982;2022-09-03T03:30:57;67760;;;12.74;88.82
51417;BME280;50158;51.528;6.982;2022-09-03T03:31:57;67760;;;12.75;88.82
51417;BME280;50158;51.528;6.982;2022-09-03T03:32:57;67770;;;12.77;88.93
51417;BME280;50158;51.528;6.982;2022-09-03T03:33:58;67770;;;12.78;88.88
51417;BME280;50158;51.528;6.982;2022-09-03T03:34:58;67770;;;12.8;88.68
51417;BME280;50158;51.528;6.982;2022-09-03T03:35:58;67770;;;12.81;88.87
51417;BME280;50158;51.528;6.982;2022-09-03T03:36:57;67770;;;12.79;88.98
51417;BME280;50158;51.528;6.982;2022-09-03T03:37:58;67770;;;12.78;88.89
51417;BME280;50158;51.528;6.982;2022-09-03T03:38:57;67760;;;12.74;89.05
51417;BME280;50158;51.528;6.982;2022-09-03T03:39:57;67770;;;12.81;89
51417;BME280;50158;51.528;6.982;2022-09-03T03:40:57;67770;;;12.84;88.79
51417;BME280;50158;51.528;6.982;2022-09-03T03:41:58;67770;;;12.78;88.92
51417;BME280;50158;51.528;6.982;2022-09-03T03:42:57;67760;;;12.75;89.1
51417;BME280;50158;51.528;6.982;2022-09-03T03:43:58;67760;;;12.71;89.53
51417;BME280;50158;51.528;6.982;2022-09-03T03:44:57;67760;;;12.7;89.81
51417;BME280;50158;51.528;6.982;2022-09-03T03:45:57;67760;;;12.69;89.57
51417;BME280;50158;51.528;6.982;2022-09-03T03:46:57;67760;;;12.66;89.71
51417;BME280;50158;51.528;6.982;2022-09-03T03:47:57;67750;;;12.66;90.04
51417;BME280;50158;51.528;6.982;2022-09-03T03:48:57;67750;;;12.64;90.02
51417;BME280;50158;51.528;6.982;2022-09-03T03:49:58;67750;;;12.62;90.28
51417;BME280;50158;51.528;6.982;2022-09-03T03:50:59;67740;;;12.57;90.58
51417;BME280;50158;51.528;6.982;2022-09-03T03:51:57;67740;;;12.55;90.58
51417;BME280;50158;51.528;6.982;2022-09-03T03:52:58;67740;;;12.51;90.65
51417;BME280;50158;51.528;6.982;2022-09-03T03:53:58;67730;;;12.47;90.96
51417;BME280;50158;51.528;6.982;2022-09-03T03:54:57;67730;;;12.46;91.12
51417;BME280;50158;51.528;6.982;2022-09-03T03:55:58;67730;;;12.43;91.35
51417;BME280;50158;51.528;6.982;2022-09-03T03:56:57;67730;;;12.41;91.51
51417;BME280;50158;51.528;6.982;2022-09-03T03:57:58;67730;;;12.4;91.76
51417;BME280;50158;51.528;6.982;2022-09-03T03:58:58;67720;;;12.38;91.94
51417;BME280;50158;51.528;6.982;2022-09-03T03:59:57;67720;;;12.35;91.97
51417;BME280;50158;51.528;6.982;2022-09-03T04:01:05;67720;;;12.33;92.1
51417;BME280;50158;51.528;6.982;2022-09-03T04:01:58;67720;;;12.35;92.32
51417;BME280;50158;51.528;6.982;2022-09-03T04:02:58;67720;;;12.35;92.31
51417;BME280;50158;51.528;6.982;2022-09-03T04:03:57;67720;;;12.34;92.25
51417;BME280;50158;51.528;6.982;2022-09-03T04:04:57;67720;;;12.35;92.23
51417;BME280;50158;51.528;6.982;2022-09-03T04:05:57;67720;;;12.34;92.32
51417;BME280;50158;51.528;6.982;2022-09-03T04:06:57;67720;;;12.34;92.32
51417;BME280;50158;51.528;6.982;2022-09-03T04:07:59;67720;;;12.32;92.63
51417;BME280;50158;51.528;6.982;2022-09-03T04:08:57;67720;;;12.31;92.48
51417;BME280;50158;51.528;6.982;2022-09-03T04:09:58;67720;;;12.36;92.39
51417;BME280;50158;51.528;6.982;2022-09-03T04:10:59;67720;;;12.39;92.33
51417;BME280;50158;51.528;6.982;2022-09-03T04:11:57;67720;;;12.39;92.42
51417;BME280;50158;51.528;6.982;2022-09-03T04:12:58;67720;;;12.36;92.43
51417;BME280;50158;51.528;6.982;2022-09-03T04:13:57;67730;;;12.4;92.27
51417;BME280;50158;51.528;6.982;2022-09-03T04:14:57;67730;;;12.42;92.28
51417;BME280;50158;51.528;6.982;2022-09-03T04:15:59;67730;;;12.44;91.8
51417;BME280;50158;51.528;6.982;2022-09-03T04:16:57;67730;;;12.45;91.67
51417;BME280;50158;51.528;6.982;2022-09-03T04:17:57;67730;;;12.42;92.26
51417;BME280;50158;51.528;6.982;2022-09-03T04:18:57;67730;;;12.4;92.21
51417;BME280;50158;51.528;6.982;2022-09-03T04:19:58;67720;;;12.38;92.23
51417;BME280;50158;51.528;6.982;2022-09-03T04:20:58;67730;;;12.39;92.3
51417;BME280;50158;51.528;6.982;2022-09-03T04:21:57;67720;;;12.39;92.04
51417;BME280;50158;51.528;6.982;2022-09-03T04:23:00;67720;;;12.38;92.11
51417;BME280;50158;51.528;6.982;2022-09-03T04:23:57;67720;;;12.38;92.2
51417;BME280;50158;51.528;6.982;2022-09-03T04:24:57;67730;;;12.42;92.03
51417;BME280;50158;51.528;6.982;2022-09-03T04:25:57;67730;;;12.41;92.18
51417;BME280;50158;51.528;6.982;2022-09-03T04:26:58;67720;;;12.36;92.43
51417;BME280;50158;51.528;6.982;2022-09-03T04:27:57;67720;;;12.34;92.68
51417;BME280;50158;51.528;6.982;2022-09-03T04:28:58;67720;;;12.32;93
51417;BME280;50158;51.528;6.982;2022-09-03T04:29:58;67710;;;12.3;92.99
51417;BME280;50158;51.528;6.982;2022-09-03T04:31:01;67720;;;12.3;93.32
51417;BME280;50158;51.528;6.982;2022-09-03T04:31:58;67720;;;12.32;93.1
51417;BME280;50158;51.528;6.982;2022-09-03T04:32:58;67720;;;12.32;93.15
51417;BME280;50158;51.528;6.982;2022-09-03T04:33:57;67710;;;12.3;92.94
51417;BME280;50158;51.528;6.982;2022-09-03T04:34:57;67720;;;12.31;92.71
51417;BME280;50158;51.528;6.982;2022-09-03T04:36:14;67720;;;12.3;92.77
51417;BME280;50158;51.528;6.982;2022-09-03T04:36:57;67710;;;12.29;92.88
51417;BME280;50158;51.528;6.982;2022-09-03T04:37:57;67710;;;12.28;93.24
51417;BME280;50158;51.528;6.982;2022-09-03T04:38:58;67720;;;12.32;93.04
51417;BME280;50158;51.528;6.982;2022-09-03T04:39:57;67720;;;12.31;92.94
51417;BME280;50158;51.528;6.982;2022-09-03T04:40:58;67720;;;12.32;92.91
51417;BME280;50158;51.528;6.982;2022-09-03T04:41:57;67720;;;12.31;92.81
51417;BME280;50158;51.528;6.982;2022-09-03T04:42:59;67720;;;12.31;92.77
51417;BME280;50158;51.528;6.982;2022-09-03T04:43:57;67720;;;12.3;93.05
51417;BME280;50158;51.528;6.982;2022-09-03T04:44:57;67720;;;12.36;92.94
51417;BME280;50158;51.528;6.982;2022-09-03T04:45:58;67730;;;12.42;92.84
51417;BME280;50158;51.528;6.982;2022-09-03T04:46:57;67730;;;12.45;92.62
51417;BME280;50158;51.528;6.982;2022-09-03T04:47:58;67730;;;12.44;92.58
51417;BME280;50158;51.528;6.982;2022-09-03T04:49:57;67730;;;12.44;92.16
51417;BME280;50158;51.528;6.982;2022-09-03T04:51:06;67730;;;12.44;91.96
51417;BME280;50158;51.528;6.982;2022-09-03T04:51:57;67730;;;12.43;92
51417;BME280;50158;51.528;6.982;2022-09-03T04:52:59;67730;;;12.44;91.98
51417;BME280;50158;51.528;6.982;2022-09-03T04:53:58;67730;;;12.44;92.01
51417;BME280;50158;51.528;6.982;2022-09-03T04:54:57;67730;;;12.44;92.31
51417;BME280;50158;51.528;6.982;2022-09-03T04:55:57;67730;;;12.43;92.86
51417;BME280;50158;51.528;6.982;2022-09-03T04:56:57;67740;;;12.52;92.43
51417;BME280;50158;51.528;6.982;2022-09-03T04:57:58;67740;;;12.56;91.97
51417;BME280;50158;51.528;6.982;2022-09-03T04:58:59;67750;;;12.58;91.66
51417;BME280;50158;51.528;6.982;2022-09-03T04:59:58;67750;;;12.62;91.4
51417;BME280;50158;51.528;6.982;2022-09-03T05:01:57;67740;;;12.56;91.65
51417;BME280;50158;51.528;6.982;2022-09-03T05:02:59;67740;;;12.54;91.6
51417;BME280;50158;51.528;6.982;2022-09-03T05:03:57;67740;;;12.52;91.7
51417;BME280;50158;51.528;6.982;2022-09-03T05:04:57;67740;;;12.52;91.57
51417;BME280;50158;51.528;6.982;2022-09-03T05:05:57;67740;;;12.53;91.68
51417;BME280;50158;51.528;6.982;2022-09-03T05:06:58;67740;;;12.52;92.08
51417;BME280;50158;51.528;6.982;2022-09-03T05:07:59;67740;;;12.49;91.89
51417;BME280;50158;51.528;6.982;2022-09-03T05:08:57;67740;;;12.49;91.88
51417;BME280;50158;51.528;6.982;2022-09-03T05:09:58;67740;;;12.49;92.13
51417;BME280;50158;51.528;6.982;2022-09-03T05:10:58;67740;;;12.5;92
51417;BME280;50158;51.528;6.982;2022-09-03T05:11:57;67740;;;12.52;91.84
51417;BME280;50158;51.528;6.982;2022-09-03T05:12:59;67740;;;12.53;91.78
51417;BME280;50158;51.528;6.982;2022-09-03T05:13:58;67740;;;12.57;91.67
51417;BME280;50158;51.528;6.982;2022-09-03T05:14:57;67750;;;12.6;91.58
51417;BME280;50158;51.528;6.982;2022-09-03T05:16:57;67760;;;12.68;91.36
51417;BME280;50158;51.528;6.982;2022-09-03T05:17:58;67760;;;12.7;91.3
51417;BME280;50158;51.528;6.982;2022-09-03T05:18:58;67760;;;12.7;91.17
51417;BME280;50158;51.528;6.982;2022-09-03T05:19:58;67760;;;12.69;91.24
51417;BME280;50158;51.528;6.982;2022-09-03T05:21:01;67760;;;12.67;91.23
51417;BME280;50158;51.528;6.982;2022-09-03T05:21:58;67750;;;12.66;91.31
51417;BME280;50158;51.528;6.982;2022-09-03T05:23:01;67750;;;12.65;91.4
51417;BME280;50158;51.528;6.982;2022-09-03T05:23:58;67750;;;12.66;92.08
51417;BME280;50158;51.528;6.982;2022-09-03T05:24:57;67750;;;12.67;92.25
51417;BME280;50158;51.528;6.982;2022-09-03T05:25:58;67760;;;12.71;92.05
51417;BME280;50158;51.528;6.982;2022-09-03T05:26:58;67760;;;12.69;91.93
51417;BME280;50158;51.528;6.982;2022-09-03T05:27:58;67770;;;12.76;91.46
51417;BME280;50158;51.528;6.982;2022-09-03T05:28:58;67770;;;12.78;91.23
51417;BME280;50158;51.528;6.982;2022-09-03T05:29:57;67770;;;12.78;91.26
51417;BME280;50158;51.528;6.982;2022-09-03T05:30:59;67770;;;12.77;91.16
51417;BME280;50158;51.528;6.982;2022-09-03T05:31:57;67770;;;12.8;90.85
51417;BME280;50158;51.528;6.982;2022-09-03T05:32:57;67770;;;12.83;90.74
51417;BME280;50158;51.528;6.982;2022-09-03T05:33:58;67770;;;12.85;90.41
51417;BME280;50158;51.528;6.982;2022-09-03T05:34:58;67780;;;12.85;90.67
51417;BME280;50158;51.528;6.982;2022-09-03T05:36:01;67780;;;12.85;90.75
51417;BME280;50158;51.528;6.982;2022-09-03T05:36:57;67780;;;12.87;90.72
51417;BME280;50158;51.528;6.982;2022-09-03T05:37:57;67780;;;12.88;90.73
51417;BME280;50158;51.528;6.982;2022-09-03T05:38:58;67780;;;12.88;90.77
51417;BME280;50158;51.528;6.982;2022-09-03T05:39:58;67780;;;12.92;90.69
51417;BME280;50158;51.528;6.982;2022-09-03T05:41:02;67790;;;12.95;90.72
51417;BME280;50158;51.528;6.982;2022-09-03T05:41:57;67790;;;12.96;90.56
51417;BME280;50158;51.528;6.982;2022-09-03T05:42:58;67790;;;12.98;90.52
51417;BME280;50158;51.528;6.982;2022-09-03T05:43:57;67790;;;12.99;90.42
51417;BME280;50158;51.528;6.982;2022-09-03T05:44:57;67790;;;13.01;90.57
51417;BME280;50158;51.528;6.982;2022-09-03T05:45:58;67790;;;13.03;90.86
51417;BME280;50158;51.528;6.982;2022-09-03T05:46:57;67790;;;13.04;90.71
51417;BME280;50158;51.528;6.982;2022-09-03T05:47:58;67810;;;13.13;90.33
51417;BME280;50158;51.528;6.982;2022-09-03T05:48:58;67810;;;13.17;90.31
51417;BME280;50158;51.528;6.982;2022-09-03T05:49:57;67810;;;13.17;90.46